Time;durP1;ratioP1;P1;durP2;ratioP2;P2;SDS_P1;SDS_P2;PMS_P1;PMS_P2;Temp;Humidity;BMP_temperature;BMP_pressure;BME280_temperature;BME280_humidity;BME280_pressure;Samples;Min_cycle;Max_cycle;Signal;HPM_P1;HPM_P2
2022/03/11 00:03:58;;;;;;;;;;;9.30;42.40;;;;;;8395094;28;19927;-70
2022/03/11 00:07:59;;;;;;;;;;;9.30;41.50;;;;;;8394018;28;20015;-70
2022/03/11 00:12:01;;;;;;;;;;;9.20;42.20;;;;;;8416976;28;19939;-70
2022/03/11 00:16:03;;;;;;;;;;;9.20;42.00;;;;;;8414950;28;19990;-70
2022/03/11 00:20:06;;;;;;;;;;;9.20;41.90;;;;;;8415365;28;20017;-70
2022/03/11 00:24:07;;;;;;;;;;;9.10;42.30;;;;;;8408595;28;19935;-70
2022/03/11 00:28:09;;;;;;;;;;;9.00;42.50;;;;;;8410937;28;19935;-70
2022/03/11 00:32:11;;;;;;;;;;;9.00;42.50;;;;;;8387391;28;19920;-70
2022/03/11 00:36:12;;;;;;;;;;;9.00;42.40;;;;;;8409333;28;20291;-69
2022/03/11 00:40:14;;;;;;;;;;;8.90;42.20;;;;;;8402557;28;19920;-70
2022/03/11 00:44:16;;;;;;;;;;;8.80;42.70;;;;;;8422914;28;19920;-70
2022/03/11 00:48:17;;;;;;;;;;;8.80;42.30;;;;;;8401970;28;19920;-70
2022/03/11 00:52:19;;;;;;;;;;;8.70;42.50;;;;;;8406174;28;19931;-70
2022/03/11 00:56:21;;;;;;;;;;;8.70;42.70;;;;;;8409421;28;19928;-70
2022/03/11 01:00:23;;;;;;;;;;;8.60;42.70;;;;;;8415612;28;19920;-70
2022/03/11 01:04:25;;;;;;;;;;;8.50;42.80;;;;;;8412785;28;19928;-70
2022/03/11 01:08:27;;;;;;;;;;;8.50;42.90;;;;;;8408775;28;20385;-70
2022/03/11 01:12:28;;;;;;;;;;;8.40;42.90;;;;;;8418516;28;19928;-69
2022/03/11 01:16:30;;;;;;;;;;;8.30;42.90;;;;;;8391453;28;19928;-70
2022/03/11 01:20:32;;;;;;;;;;;8.30;43.40;;;;;;8402141;28;19990;-69
2022/03/11 01:24:34;;;;;;;;;;;8.20;43.30;;;;;;8408710;28;19927;-70
2022/03/11 01:28:36;;;;;;;;;;;8.20;43.60;;;;;;8418088;28;20458;-69
2022/03/11 01:32:37;;;;;;;;;;;8.10;43.50;;;;;;8400290;28;19964;-70
2022/03/11 01:36:39;;;;;;;;;;;8.10;43.00;;;;;;8405228;28;19928;-69
2022/03/11 01:40:41;;;;;;;;;;;8.00;43.30;;;;;;8402855;28;19920;-69
2022/03/11 01:44:42;;;;;;;;;;;7.90;43.60;;;;;;8425231;28;19920;-70
2022/03/11 01:48:44;;;;;;;;;;;7.80;43.70;;;;;;8383071;28;19931;-70
2022/03/11 01:52:46;;;;;;;;;;;7.80;44.00;;;;;;8396510;28;19931;-70
2022/03/11 01:56:47;;;;;;;;;;;7.70;44.00;;;;;;8403691;28;19920;-70
2022/03/11 02:00:49;;;;;;;;;;;7.70;44.90;;;;;;8413738;28;19931;-70
2022/03/11 02:04:51;;;;;;;;;;;7.60;44.40;;;;;;8397848;28;19931;-70
2022/03/11 02:08:53;;;;;;;;;;;7.60;44.60;;;;;;8404689;28;19931;-70
2022/03/11 02:12:57;;;;;;;;;;;7.60;45.10;;;;;;8390114;28;20146;-70
2022/03/11 02:16:59;;;;;;;;;;;7.50;44.30;;;;;;8412700;28;19927;-70
2022/03/11 02:21:00;;;;;;;;;;;7.50;44.60;;;;;;8399917;28;19931;-69
2022/03/11 02:25:04;;;;;;;;;;;7.40;45.90;;;;;;8403636;28;19924;-69
2022/03/11 02:29:06;;;;;;;;;;;7.40;45.60;;;;;;8407209;28;19935;-70
2022/03/11 02:33:08;;;;;;;;;;;7.40;44.90;;;;;;8384675;28;19921;-70
2022/03/11 02:37:09;;;;;;;;;;;7.30;44.90;;;;;;8364471;28;20004;-70
2022/03/11 02:41:11;;;;;;;;;;;7.30;45.20;;;;;;8368960;28;19946;-70
2022/03/11 02:45:13;;;;;;;;;;;7.30;45.90;;;;;;8374088;28;19931;-70
2022/03/11 02:49:15;;;;;;;;;;;7.20;44.90;;;;;;8377885;28;19928;-70
2022/03/11 02:53:16;;;;;;;;;;;7.20;45.20;;;;;;8380887;28;19924;-70
2022/03/11 02:57:18;;;;;;;;;;;7.20;46.40;;;;;;8375223;28;19921;-69
2022/03/11 03:01:20;;;;;;;;;;;7.10;45.40;;;;;;8380957;28;19924;-70
2022/03/11 03:05:22;;;;;;;;;;;7.10;46.30;;;;;;8374912;28;19924;-69
2022/03/11 03:09:23;;;;;;;;;;;7.10;45.80;;;;;;8380501;28;20061;-70
2022/03/11 03:13:25;;;;;;;;;;;7.00;45.70;;;;;;8374208;28;19920;-70
2022/03/11 03:17:28;;;;;;;;;;;7.00;47.50;;;;;;8386178;28;19939;-69
2022/03/11 03:21:33;;;;;;;;;;;7.00;47.20;;;;;;8391334;28;20357;-70
2022/03/11 03:25:35;;;;;;;;;;;6.90;46.50;;;;;;8376882;28;19935;-70
2022/03/11 03:29:37;;;;;;;;;;;6.90;47.10;;;;;;8382945;28;19939;-70
2022/03/11 03:33:39;;;;;;;;;;;6.90;48.40;;;;;;8398453;28;19942;-70
2022/03/11 03:37:41;;;;;;;;;;;6.90;47.80;;;;;;8401917;28;19950;-70
2022/03/11 03:41:42;;;;;;;;;;;6.80;47.50;;;;;;8408580;28;20027;-70
2022/03/11 03:45:44;;;;;;;;;;;6.80;47.80;;;;;;8413741;28;19931;-69
2022/03/11 03:49:46;;;;;;;;;;;6.80;48.50;;;;;;8413247;28;19920;-70
2022/03/11 03:53:47;;;;;;;;;;;6.70;48.30;;;;;;8410168;28;20339;-70
2022/03/11 03:57:49;;;;;;;;;;;6.70;49.60;;;;;;8413045;28;20006;-70
2022/03/11 04:01:51;;;;;;;;;;;6.60;48.30;;;;;;8414255;28;19930;-70
2022/03/11 04:05:52;;;;;;;;;;;6.60;49.00;;;;;;8415906;28;19924;-69
2022/03/11 04:09:54;;;;;;;;;;;6.50;47.80;;;;;;8414188;28;19920;-70
2022/03/11 04:13:56;;;;;;;;;;;6.40;48.20;;;;;;8399060;28;19927;-69
2022/03/11 04:17:58;;;;;;;;;;;6.40;50.10;;;;;;8428309;28;19926;-69
2022/03/11 04:21:59;;;;;;;;;;;6.40;48.30;;;;;;8416029;28;19919;-69
2022/03/11 04:26:02;;;;;;;;;;;6.30;49.10;;;;;;8422832;28;19927;-70
2022/03/11 04:30:04;;;;;;;;;;;6.30;48.60;;;;;;8418240;28;20893;-69
2022/03/11 04:34:05;;;;;;;;;;;6.20;48.30;;;;;;8388499;28;20249;-70
2022/03/11 04:38:09;;;;;;;;;;;6.20;48.10;;;;;;8416585;28;20371;-69
2022/03/11 04:42:10;;;;;;;;;;;6.10;50.30;;;;;;8404400;28;20631;-70
2022/03/11 04:46:12;;;;;;;;;;;6.10;49.10;;;;;;8389212;28;19924;-70
2022/03/11 04:50:14;;;;;;;;;;;6.10;51.10;;;;;;8392767;28;20351;-69
2022/03/11 04:54:15;;;;;;;;;;;6.00;49.90;;;;;;8409041;28;19928;-69
2022/03/11 04:58:17;;;;;;;;;;;6.00;49.50;;;;;;8404054;28;19924;-70
2022/03/11 05:02:28;;;;;;;;;;;5.90;49.90;;;;;;8415123;28;19924;-69
2022/03/11 05:06:29;;;;;;;;;;;5.90;50.30;;;;;;8402583;28;19928;-69
2022/03/11 05:10:31;;;;;;;;;;;5.90;50.60;;;;;;8410040;28;19930;-69
2022/03/11 05:14:33;;;;;;;;;;;5.90;49.70;;;;;;8405641;28;19920;-70
2022/03/11 05:18:35;;;;;;;;;;;5.80;50.40;;;;;;8397139;28;19920;-70
2022/03/11 05:22:36;;;;;;;;;;;5.70;50.60;;;;;;8415860;28;19938;-70
2022/03/11 05:26:38;;;;;;;;;;;5.70;50.80;;;;;;8425928;28;19920;-70
2022/03/11 05:30:40;;;;;;;;;;;5.60;50.90;;;;;;8425922;28;19927;-69
2022/03/11 05:34:45;;;;;;;;;;;5.50;52.30;;;;;;8428540;28;20019;-69
2022/03/11 05:38:48;;;;;;;;;;;5.50;52.20;;;;;;8422289;28;22275;-69
2022/03/11 05:42:51;;;;;;;;;;;5.50;51.50;;;;;;8415869;28;19924;-69
2022/03/11 05:46:52;;;;;;;;;;;5.50;51.20;;;;;;8399144;28;19928;-69
2022/03/11 05:50:54;;;;;;;;;;;5.40;51.70;;;;;;8393868;28;20376;-69
2022/03/11 05:54:56;;;;;;;;;;;5.40;52.10;;;;;;8419386;28;19924;-69
2022/03/11 05:58:57;;;;;;;;;;;5.40;54.10;;;;;;8415860;28;19928;-69
2022/03/11 06:02:59;;;;;;;;;;;5.40;56.20;;;;;;8418828;28;19935;-69
2022/03/11 06:07:01;;;;;;;;;;;5.40;54.10;;;;;;8429709;28;19923;-69
2022/03/11 06:11:02;;;;;;;;;;;5.40;53.30;;;;;;8418491;28;19963;-69
2022/03/11 06:15:08;;;;;;;;;;;5.50;53.70;;;;;;8424257;28;19928;-69
2022/03/11 06:19:10;;;;;;;;;;;5.40;54.10;;;;;;8396735;28;19924;-69
2022/03/11 06:23:13;;;;;;;;;;;5.40;54.70;;;;;;8404256;28;20413;-69
2022/03/11 06:27:15;;;;;;;;;;;5.40;55.10;;;;;;8421881;28;19930;-69
2022/03/11 06:31:16;;;;;;;;;;;5.40;55.10;;;;;;8426339;28;19925;-69
2022/03/11 06:35:18;;;;;;;;;;;5.40;55.70;;;;;;8420862;28;19925;-69
2022/03/11 06:39:20;;;;;;;;;;;5.50;55.30;;;;;;8426257;28;19943;-69
2022/03/11 06:43:22;;;;;;;;;;;5.50;54.40;;;;;;8424651;28;19928;-69
2022/03/11 06:47:23;;;;;;;;;;;5.60;54.40;;;;;;8420103;28;20341;-69
2022/03/11 06:51:25;;;;;;;;;;;5.70;56.10;;;;;;8416048;28;19924;-69
2022/03/11 06:55:27;;;;;;;;;;;5.80;55.60;;;;;;8433662;28;19928;-69
2022/03/11 06:59:28;;;;;;;;;;;5.90;55.40;;;;;;8415835;28;19924;-69
2022/03/11 07:03:30;;;;;;;;;;;6.00;55.90;;;;;;8403491;28;20279;-69
2022/03/11 07:07:33;;;;;;;;;;;6.10;55.80;;;;;;8419300;28;19935;-69
2022/03/11 07:11:35;;;;;;;;;;;6.20;57.60;;;;;;8407685;28;20345;-69
2022/03/11 07:15:36;;;;;;;;;;;6.40;57.20;;;;;;8414899;28;19925;-69
2022/03/11 07:19:39;;;;;;;;;;;6.50;56.80;;;;;;8417560;28;19988;-70
2022/03/11 07:23:41;;;;;;;;;;;6.60;57.00;;;;;;8412348;28;19947;-69
2022/03/11 07:27:43;;;;;;;;;;;6.80;57.60;;;;;;8422098;28;20012;-69
2022/03/11 07:31:45;;;;;;;;;;;6.90;58.20;;;;;;8424862;28;20346;-70
2022/03/11 07:35:47;;;;;;;;;;;7.10;57.00;;;;;;8421679;28;19925;-70
2022/03/11 07:39:49;;;;;;;;;;;7.20;57.90;;;;;;8420651;28;19939;-70
2022/03/11 07:43:50;;;;;;;;;;;7.30;58.20;;;;;;8428495;28;19928;-70
2022/03/11 07:48:12;;;;;;;;;;;7.40;58.50;;;;;;8420229;28;20454;-70
2022/03/11 07:52:15;;;;;;;;;;;7.50;58.80;;;;;;8416929;28;19932;-70
2022/03/11 07:56:17;;;;;;;;;;;7.60;57.80;;;;;;8420571;28;20295;-70
2022/03/11 08:00:19;;;;;;;;;;;7.80;59.40;;;;;;8417119;28;19932;-69
2022/03/11 08:04:22;;;;;;;;;;;7.90;59.60;;;;;;8424031;28;19924;-70
2022/03/11 08:08:23;;;;;;;;;;;7.90;58.50;;;;;;8412246;28;19925;-70
2022/03/11 08:12:25;;;;;;;;;;;8.00;58.50;;;;;;8400743;28;20255;-70
2022/03/11 08:16:27;;;;;;;;;;;8.10;58.80;;;;;;8410300;28;19936;-70
2022/03/11 08:20:28;;;;;;;;;;;8.20;58.80;;;;;;8402686;28;19928;-70
2022/03/11 08:24:30;;;;;;;;;;;8.30;58.90;;;;;;8406493;28;19924;-69
2022/03/11 08:28:32;;;;;;;;;;;8.40;59.80;;;;;;8384040;28;19959;-70
2022/03/11 08:32:34;;;;;;;;;;;8.60;58.50;;;;;;8418759;28;19932;-69
2022/03/11 08:36:35;;;;;;;;;;;8.70;59.00;;;;;;8422902;28;20019;-70
2022/03/11 08:40:41;;;;;;;;;;;8.80;58.70;;;;;;8420174;28;19928;-70
2022/03/11 08:44:43;;;;;;;;;;;8.90;58.80;;;;;;8389164;28;19940;-70
2022/03/11 08:48:45;;;;;;;;;;;9.10;58.40;;;;;;8416312;28;19931;-70
2022/03/11 08:52:47;;;;;;;;;;;9.20;58.40;;;;;;8409532;28;19949;-70
2022/03/11 08:56:48;;;;;;;;;;;9.30;58.60;;;;;;8419396;28;19932;-70
2022/03/11 09:00:50;;;;;;;;;;;9.40;58.70;;;;;;8428792;28;19931;-70
2022/03/11 09:04:52;;;;;;;;;;;9.60;58.80;;;;;;8422660;28;19931;-70
2022/03/11 09:08:53;;;;;;;;;;;9.70;58.60;;;;;;8420797;28;20288;-71
2022/03/11 09:12:55;;;;;;;;;;;9.80;58.90;;;;;;8424309;28;19931;-69
2022/03/11 09:16:57;;;;;;;;;;;9.80;58.80;;;;;;8425219;28;19924;-70
2022/03/11 09:20:59;;;;;;;;;;;9.90;59.20;;;;;;8401929;28;20003;-70
2022/03/11 09:25:03;;;;;;;;;;;10.00;57.90;;;;;;8420923;28;19924;-70
2022/03/11 09:29:06;;;;;;;;;;;10.10;57.50;;;;;;8423035;28;19959;-70
2022/03/11 09:33:08;;;;;;;;;;;10.20;58.10;;;;;;8421355;28;19931;-70
2022/03/11 09:37:10;;;;;;;;;;;10.30;58.00;;;;;;8415457;28;19932;-70
2022/03/11 09:41:12;;;;;;;;;;;10.40;58.50;;;;;;8424942;28;19932;-70
2022/03/11 09:45:13;;;;;;;;;;;10.60;58.20;;;;;;8418984;28;19924;-69
2022/03/11 09:49:16;;;;;;;;;;;10.80;58.30;;;;;;8428851;28;19981;-70
2022/03/11 09:53:17;;;;;;;;;;;11.00;58.40;;;;;;8414861;28;19925;-69
2022/03/11 09:57:23;;;;;;;;;;;11.10;58.00;;;;;;8413321;28;20371;-70
2022/03/11 10:01:25;;;;;;;;;;;11.40;58.00;;;;;;8405855;28;19931;-70
2022/03/11 10:05:46;;;;;;;;;;;11.70;58.50;;;;;;8429680;28;19931;-69
2022/03/11 10:09:47;;;;;;;;;;;12.00;58.90;;;;;;8428931;28;19924;-69
2022/03/11 10:13:50;;;;;;;;;;;12.20;60.10;;;;;;8426521;28;19940;-69
2022/03/11 10:17:52;;;;;;;;;;;12.50;61.00;;;;;;8430364;28;19924;-70
2022/03/11 10:21:56;;;;;;;;;;;12.70;60.50;;;;;;8433488;28;19924;-70
2022/03/11 10:26:00;;;;;;;;;;;12.80;61.40;;;;;;8422960;28;19935;-69
2022/03/11 10:30:13;;;;;;;;;;;12.90;61.70;;;;;;8425618;28;19935;-69
2022/03/11 10:34:15;;;;;;;;;;;13.30;62.20;;;;;;8424545;28;19984;-70
2022/03/11 10:38:18;;;;;;;;;;;13.40;61.40;;;;;;8410236;28;19928;-69
2022/03/11 10:42:19;;;;;;;;;;;13.70;63.20;;;;;;8427037;28;19928;-70
2022/03/11 10:46:24;;;;;;;;;;;14.10;64.00;;;;;;8423953;28;19931;-70
2022/03/11 10:50:34;;;;;;;;;;;14.40;63.30;;;;;;8420876;28;20265;-70
2022/03/11 10:54:41;;;;;;;;;;;14.70;64.90;;;;;;8425947;28;19932;-70
2022/03/11 10:58:43;;;;;;;;;;;14.90;65.90;;;;;;8417839;28;19932;-70
2022/03/11 11:02:44;;;;;;;;;;;15.30;66.80;;;;;;8425482;28;20379;-69
2022/03/11 11:06:46;;;;;;;;;;;15.50;62.40;;;;;;8425239;28;19924;-70
2022/03/11 11:10:49;;;;;;;;;;;15.70;65.70;;;;;;8424108;28;19924;-69
2022/03/11 11:14:50;;;;;;;;;;;16.00;62.80;;;;;;8424010;28;19943;-70
2022/03/11 11:18:53;;;;;;;;;;;16.20;66.80;;;;;;8406218;28;19925;-70
2022/03/11 11:22:55;;;;;;;;;;;16.30;58.30;;;;;;8413423;28;19931;-69
2022/03/11 11:26:57;;;;;;;;;;;16.30;63.30;;;;;;8428278;28;19932;-70
2022/03/11 11:30:59;;;;;;;;;;;16.60;62.20;;;;;;8418577;28;20296;-70
2022/03/11 11:35:20;;;;;;;;;;;16.80;62.70;;;;;;8391993;28;20456;-70
2022/03/11 11:39:26;;;;;;;;;;;16.90;61.80;;;;;;8389518;28;19932;-70
2022/03/11 11:43:29;;;;;;;;;;;17.20;63.40;;;;;;8425313;28;19924;-70
2022/03/11 11:47:32;;;;;;;;;;;17.60;63.30;;;;;;8411465;28;19924;-70
2022/03/11 11:51:36;;;;;;;;;;;18.00;63.90;;;;;;8403151;28;19925;-70
2022/03/11 11:55:41;;;;;;;;;;;18.30;65.00;;;;;;8411053;28;19924;-70
2022/03/11 11:59:43;;;;;;;;;;;18.50;62.00;;;;;;8409321;28;19925;-70
2022/03/11 12:03:48;;;;;;;;;;;18.60;62.20;;;;;;8412416;28;19924;-70
2022/03/11 12:07:50;;;;;;;;;;;18.70;55.30;;;;;;8407942;28;19954;-70
2022/03/11 12:11:52;;;;;;;;;;;18.60;59.20;;;;;;8407856;28;19932;-70
2022/03/11 12:15:53;;;;;;;;;;;18.70;59.60;;;;;;8415810;28;19924;-69
2022/03/11 12:19:55;;;;;;;;;;;18.90;57.50;;;;;;8417621;28;19963;-70
2022/03/11 12:24:17;;;;;;;;;;;19.20;59.70;;;;;;8424196;28;19935;-70
2022/03/11 12:28:24;;;;;;;;;;;19.30;56.10;;;;;;8426967;28;19932;-69
2022/03/11 12:32:26;;;;;;;;;;;19.20;52.30;;;;;;8424263;28;19932;-70
2022/03/11 12:36:28;;;;;;;;;;;18.90;51.60;;;;;;8420561;28;19928;-69
2022/03/11 12:40:30;;;;;;;;;;;19.00;53.20;;;;;;8400679;28;19977;-70
2022/03/11 12:44:45;;;;;;;;;;;19.30;55.90;;;;;;8419305;28;19931;-70
2022/03/11 12:48:47;;;;;;;;;;;19.80;56.20;;;;;;8419304;28;19924;-70
2022/03/11 12:52:48;;;;;;;;;;;20.00;56.50;;;;;;8417874;28;19928;-70
2022/03/11 12:56:50;;;;;;;;;;;20.30;56.80;;;;;;8420610;28;19928;-70
2022/03/11 13:00:53;;;;;;;;;;;20.20;53.20;;;;;;8419897;28;19931;-70
2022/03/11 13:04:55;;;;;;;;;;;19.40;52.90;;;;;;8406727;28;19924;-70
2022/03/11 13:09:01;;;;;;;;;;;18.70;49.80;;;;;;8413539;28;19932;-70
2022/03/11 13:13:04;;;;;;;;;;;18.10;48.70;;;;;;8404331;28;19935;-71
2022/03/11 13:17:09;;;;;;;;;;;17.80;48.40;;;;;;8417609;28;19928;-70
2022/03/11 13:21:12;;;;;;;;;;;17.60;47.70;;;;;;8416094;28;19932;-70
2022/03/11 13:25:14;;;;;;;;;;;17.50;47.60;;;;;;8421138;28;20279;-70
2022/03/11 13:29:15;;;;;;;;;;;17.40;47.40;;;;;;8425421;28;19924;-70
2022/03/11 13:33:20;;;;;;;;;;;17.30;47.40;;;;;;8423470;28;19965;-70
2022/03/11 13:37:22;;;;;;;;;;;17.40;47.80;;;;;;8403321;28;19931;-70
2022/03/11 13:41:25;;;;;;;;;;;17.20;47.50;;;;;;8413479;28;19924;-70
2022/03/11 13:45:33;;;;;;;;;;;17.10;48.20;;;;;;8420887;28;19955;-70
2022/03/11 13:49:39;;;;;;;;;;;17.10;48.10;;;;;;8422243;28;19933;-70
2022/03/11 13:53:40;;;;;;;;;;;17.00;48.30;;;;;;8423860;28;20306;-70
2022/03/11 13:57:42;;;;;;;;;;;17.10;48.50;;;;;;8421348;28;20401;-70
2022/03/11 14:01:44;;;;;;;;;;;17.10;48.60;;;;;;8421275;28;19976;-70
2022/03/11 14:05:47;;;;;;;;;;;17.00;48.50;;;;;;8419059;28;19981;-70
2022/03/11 14:09:52;;;;;;;;;;;16.90;48.40;;;;;;8416081;28;19928;-70
2022/03/11 14:13:54;;;;;;;;;;;17.00;49.00;;;;;;8414719;28;20348;-69
2022/03/11 14:17:56;;;;;;;;;;;17.10;48.50;;;;;;8410027;28;19924;-70
2022/03/11 14:21:59;;;;;;;;;;;17.20;48.50;;;;;;8389378;28;19931;-70
2022/03/11 14:26:01;;;;;;;;;;;17.20;48.90;;;;;;8407691;28;20251;-70
2022/03/11 14:30:03;;;;;;;;;;;17.20;48.50;;;;;;8408477;28;19948;-69
2022/03/11 14:34:05;;;;;;;;;;;17.50;50.00;;;;;;8409136;28;20314;-70
2022/03/11 14:38:06;;;;;;;;;;;18.30;51.30;;;;;;8411137;28;19928;-70
2022/03/11 14:42:08;;;;;;;;;;;18.90;53.10;;;;;;8397792;28;19936;-70
2022/03/11 14:46:10;;;;;;;16.77;10.93;;;19.80;51.20;;;;;;8382178;28;19928;-70
2022/03/11 14:50:13;;;;;;;;;;;20.30;53.50;;;;;;8410223;28;19920;-70
2022/03/11 14:54:15;;;;;;;;;;;21.00;53.20;;;;;;8422643;28;19924;-70
2022/03/11 14:58:16;;;;;;;;;;;21.40;49.90;;;;;;8426445;28;20363;-70
2022/03/11 15:02:18;;;;;;;;;;;21.30;51.60;;;;;;8425840;28;19924;-70
2022/03/11 15:06:20;;;;;;;;;;;21.50;52.30;;;;;;8426394;28;19924;-70
2022/03/11 15:10:22;;;;;;;;;;;21.50;48.60;;;;;;8416320;28;20252;-70
2022/03/11 15:14:24;;;;;;;;;;;21.50;47.30;;;;;;8419004;28;20367;-70
2022/03/11 15:18:25;;;;;;;;;;;21.50;49.20;;;;;;8411774;28;19934;-70
2022/03/11 15:22:28;;;;;;;15.02;10.55;;;21.50;46.70;;;;;;8429035;28;19928;-70
2022/03/11 15:26:30;;;;;;;14.40;10.60;;;21.30;48.00;;;;;;8427691;28;20043;-70
2022/03/11 15:30:31;;;;;;;;;;;21.40;47.40;;;;;;8425707;28;19927;-70
2022/03/11 15:34:33;;;;;;;;;;;21.40;47.70;;;;;;8421229;28;20348;-70
2022/03/11 15:38:36;;;;;;;;;;;21.00;47.30;;;;;;8427014;28;19973;-70
2022/03/11 15:42:39;;;;;;;;;;;20.40;45.20;;;;;;8418288;28;19920;-70
2022/03/11 15:46:41;;;;;;;;;;;19.60;45.70;;;;;;8403680;28;20315;-70
2022/03/11 15:50:44;;;;;;;;;;;19.30;45.90;;;;;;8394527;28;20421;-70
2022/03/11 15:54:46;;;;;;;;;;;18.90;45.60;;;;;;8402268;28;19928;-70
2022/03/11 15:58:48;;;;;;;;;;;18.40;45.60;;;;;;8400141;28;19920;-70
2022/03/11 16:02:50;;;;;;;;;;;18.10;46.20;;;;;;8420872;28;20335;-70
2022/03/11 16:06:52;;;;;;;;;;;17.80;46.10;;;;;;8419954;28;20427;-70
2022/03/11 16:10:54;;;;;;;;;;;17.60;46.10;;;;;;8394268;28;20429;-70
2022/03/11 16:14:55;;;;;;;;;;;17.30;46.30;;;;;;8418990;28;19920;-70
2022/03/11 16:18:57;;;;;;;;;;;17.00;46.50;;;;;;8416398;28;19920;-70
2022/03/11 16:22:58;;;;;;;;;;;16.80;46.90;;;;;;8422676;28;19927;-70
2022/03/11 16:27:00;;;;;;;;;;;16.60;46.80;;;;;;8399992;28;20003;-70
2022/03/11 16:31:02;;;;;;;;;;;16.50;46.80;;;;;;8422161;28;19931;-70
2022/03/11 16:35:23;;;;;;;;;;;16.40;47.70;;;;;;8414690;28;19982;-70
2022/03/11 16:39:25;;;;;;;;;;;16.20;47.10;;;;;;8421923;28;19920;-70
2022/03/11 16:43:27;;;;;;;;;;;16.10;47.70;;;;;;8404036;28;19924;-71
2022/03/11 16:47:28;;;;;;;;;;;15.90;47.90;;;;;;8408053;28;19920;-70
2022/03/11 16:51:30;;;;;;;;;;;15.70;48.20;;;;;;8383414;28;19920;-70
2022/03/11 16:55:32;;;;;;;;;;;15.50;48.30;;;;;;8365106;28;19976;-70
2022/03/11 16:59:34;;;;;;;;;;;15.40;47.40;;;;;;8385083;28;19930;-70
2022/03/11 17:03:36;;;;;;;;;;;15.30;47.90;;;;;;8392997;28;20391;-70
2022/03/11 17:07:39;;;;;;;;;;;15.20;47.50;;;;;;8393956;28;19920;-70
2022/03/11 17:11:43;;;;;;;;;;;15.10;47.20;;;;;;8383217;28;20164;-70
2022/03/11 17:15:45;;;;;;;;;;;15.10;46.40;;;;;;8363975;28;20355;-69
2022/03/11 17:19:46;;;;;;;;;;;14.90;47.00;;;;;;8383211;28;19928;-70
2022/03/11 17:23:48;;;;;;;;;;;14.80;46.60;;;;;;8383995;28;24117;-69
2022/03/11 17:27:50;;;;;;;;;;;14.70;45.90;;;;;;8384957;28;19955;-70
2022/03/11 17:31:51;;;;;;;;;;;14.60;46.20;;;;;;8382823;28;20371;-70
2022/03/11 17:35:53;;;;;;;;;;;14.50;47.00;;;;;;8362447;28;19920;-70
2022/03/11 17:39:55;;;;;;;;;;;14.40;47.20;;;;;;8383166;28;19920;-70
2022/03/11 17:43:57;;;;;;;;;;;14.20;48.00;;;;;;8361033;28;19924;-70
2022/03/11 17:47:58;;;;;;;;;;;14.10;47.00;;;;;;8382472;28;19931;-70
2022/03/11 17:52:01;;;;;;;;;;;14.00;46.70;;;;;;8384266;28;19928;-70
2022/03/11 17:56:04;;;;;;;;;;;14.00;46.50;;;;;;8364864;28;19972;-70
2022/03/11 18:00:08;;;;;;;;;;;13.90;46.80;;;;;;8384762;28;19920;-69
2022/03/11 18:04:09;;;;;;;;;;;13.90;46.50;;;;;;8382675;28;20359;-70
2022/03/11 18:08:11;;;;;;;;;;;13.80;45.90;;;;;;8385406;28;19931;-69
2022/03/11 18:12:13;;;;;;;;;;;13.70;46.90;;;;;;8390766;28;20643;-69
2022/03/11 18:16:14;;;;;;;;;;;13.60;46.70;;;;;;8369678;28;20367;-69
2022/03/11 18:20:16;;;;;;;;;;;13.60;46.30;;;;;;8386416;28;20348;-69
2022/03/11 18:24:19;;;;;;;;;;;13.50;46.20;;;;;;8398183;28;19924;-69
2022/03/11 18:28:21;;;;;;;;;;;13.50;46.30;;;;;;8375262;28;19920;-69
2022/03/11 18:32:22;;;;;;;;;;;13.40;46.20;;;;;;8406681;28;20295;-69
2022/03/11 18:36:24;;;;;;;;;;;13.40;46.50;;;;;;8391291;28;19927;-69
2022/03/11 18:40:28;;;;;;;;;;;13.30;45.90;;;;;;8393938;28;19946;-69
2022/03/11 18:44:29;;;;;;;;;;;13.30;46.70;;;;;;8391835;28;20380;-69
2022/03/11 18:48:31;;;;;;;;;;;13.20;46.50;;;;;;8394262;28;20410;-69
2022/03/11 18:52:33;;;;;;;;;;;13.10;46.40;;;;;;8392431;28;19947;-69
2022/03/11 18:56:34;;;;;;;;;;;13.10;46.20;;;;;;8378822;28;20411;-69
2022/03/11 19:00:36;;;;;;;;;;;13.10;46.30;;;;;;8395567;28;19927;-69
2022/03/11 19:04:38;;;;;;;;;;;13.10;46.20;;;;;;8394442;28;19924;-69
2022/03/11 19:08:40;;;;;;;;;;;13.00;46.40;;;;;;8394797;28;19920;-69
2022/03/11 19:12:42;;;;;;;;;;;12.80;46.10;;;;;;8391738;28;19921;-69
2022/03/11 19:16:43;;;;;;;;;;;12.80;46.40;;;;;;8390741;28;20005;-69
2022/03/11 19:20:46;;;;;;;;;;;12.80;46.10;;;;;;8394582;28;19920;-69
2022/03/11 19:24:48;;;;;;;;;;;12.70;46.80;;;;;;8390267;28;20313;-69
2022/03/11 19:28:49;;;;;;;;;;;12.70;46.30;;;;;;8391776;28;19920;-69
2022/03/11 19:32:53;;;;;;;;;;;12.60;46.40;;;;;;8390687;28;19932;-69
2022/03/11 19:37:02;;;;;;;;;;;12.60;46.50;;;;;;8389558;28;19931;-69
2022/03/11 19:41:07;;;;;;;;;;;12.50;46.30;;;;;;8392254;28;19924;-69
2022/03/11 19:45:09;;;;;;;;;;;12.40;47.20;;;;;;8396092;28;20263;-69
2022/03/11 19:49:11;;;;;;;;;;;12.40;47.00;;;;;;8389152;28;19928;-69
2022/03/11 19:53:13;;;;;;;;;;;12.30;47.90;;;;;;8391611;28;20287;-69
2022/03/11 19:57:15;;;;;;;;;;;12.30;46.90;;;;;;8387101;28;19931;-69
2022/03/11 20:01:17;;;;;;;;;;;12.20;47.60;;;;;;8388042;28;19920;-69
2022/03/11 20:05:19;;;;;;;;;;;12.10;47.20;;;;;;8383134;28;19928;-69
2022/03/11 20:09:20;;;;;;;;;;;12.10;46.90;;;;;;8388986;28;19920;-69
2022/03/11 20:13:27;;;;;;;;;;;12.10;47.00;;;;;;8390278;28;19957;-69
2022/03/11 20:17:29;;;;;;;;;;;12.10;47.20;;;;;;8371644;28;20371;-69
2022/03/11 20:21:31;;;;;;;;;;;12.00;46.90;;;;;;8389911;28;20015;-69
2022/03/11 20:25:33;;;;;;;;;;;12.00;47.30;;;;;;8389503;28;20364;-69
2022/03/11 20:29:35;;;;;;;;;;;12.00;46.80;;;;;;8388493;28;19924;-69
2022/03/11 20:33:38;;;;;;;;;;;11.90;46.70;;;;;;8390457;28;19955;-69
2022/03/11 20:37:41;;;;;;;;;;;11.80;47.50;;;;;;8389654;28;19933;-69
2022/03/11 20:41:44;;;;;;;;;;;11.70;47.10;;;;;;8389611;28;19924;-69
2022/03/11 20:45:46;;;;;;;;;;;11.70;47.90;;;;;;8364413;28;19947;-69
2022/03/11 20:49:54;;;;;;;;;;;11.70;47.40;;;;;;8384435;28;19929;-69
2022/03/11 20:53:55;;;;;;;;;;;11.60;47.10;;;;;;8384664;28;19935;-69
2022/03/11 20:57:57;;;;;;;;;;;11.60;47.00;;;;;;8382041;28;19924;-69
2022/03/11 21:01:59;;;;;;;;;;;11.50;47.30;;;;;;8387871;28;19920;-69
2022/03/11 21:06:02;;;;;;;;;;;11.40;47.20;;;;;;8394602;28;19943;-69
2022/03/11 21:10:12;;;;;;;;;;;11.40;47.10;;;;;;8386575;28;19924;-69
2022/03/11 21:14:16;;;;;;;;;;;11.30;47.30;;;;;;8384531;28;19936;-69
2022/03/11 21:18:18;;;;;;;;;;;11.20;47.30;;;;;;8365874;28;19932;-69
2022/03/11 21:22:20;;;;;;;;;;;11.20;47.70;;;;;;8384031;28;20874;-69
2022/03/11 21:26:22;;;;;;;;;;;11.10;47.50;;;;;;8380565;28;19928;-69
2022/03/11 21:30:26;;;;;;;;;;;11.00;47.10;;;;;;8387305;28;19970;-69
2022/03/11 21:34:28;;;;;;;;;;;11.00;47.70;;;;;;8385105;28;20353;-69
2022/03/11 21:38:30;;;;;;;;;;;11.00;47.50;;;;;;8394135;28;20295;-69
2022/03/11 21:42:31;;;;;;;;;;;11.00;47.60;;;;;;8374453;28;19925;-69
2022/03/11 21:46:33;;;;;;;;;;;11.00;47.20;;;;;;8386863;28;19959;-69
2022/03/11 21:50:36;;;;;;;;;;;10.90;46.70;;;;;;8386532;28;20047;-69
2022/03/11 21:54:42;;;;;;;;;;;10.90;47.50;;;;;;8384388;28;19924;-69
2022/03/11 21:58:44;;;;;;;;;;;10.90;47.60;;;;;;8383492;28;19976;-69
2022/03/11 22:02:46;;;;;;;;;;;10.80;48.30;;;;;;8406071;28;20009;-69
2022/03/11 22:06:48;;;;;;;;;;;10.80;47.70;;;;;;8414705;28;19920;-69
2022/03/11 22:10:50;;;;;;;;;;;10.80;47.40;;;;;;8423913;28;19927;-69
2022/03/11 22:14:51;;;;;;;;;;;10.80;47.40;;;;;;8404671;28;19931;-69
2022/03/11 22:18:53;;;;;;;;;;;10.80;47.20;;;;;;8384569;28;19925;-69
2022/03/11 22:22:55;;;;;;;;;;;10.70;46.90;;;;;;8409027;28;20005;-69
2022/03/11 22:26:57;;;;;;;;;;;10.70;47.70;;;;;;8411475;28;20235;-69
2022/03/11 22:30:59;;;;;;;;;;;10.60;47.00;;;;;;8405763;28;19985;-69
2022/03/11 22:35:01;;;;;;;;;;;10.60;47.20;;;;;;8408884;28;19920;-69
2022/03/11 22:39:03;;;;;;;;;;;10.60;47.20;;;;;;8418323;28;19919;-69
2022/03/11 22:43:05;;;;;;;;;;;10.60;47.20;;;;;;8421381;28;19927;-69
2022/03/11 22:47:08;;;;;;;;;;;10.60;47.70;;;;;;8407150;28;20299;-69
2022/03/11 22:51:10;;;;;;;;;;;10.50;47.20;;;;;;8407024;28;20375;-69
2022/03/11 22:55:12;;;;;;;;;;;10.50;47.00;;;;;;8415661;28;19920;-69
2022/03/11 22:59:15;;;;;;;;;;;10.50;47.20;;;;;;8415666;28;19923;-69
2022/03/11 23:03:17;;;;;;;;;;;10.50;47.80;;;;;;8413014;28;19976;-69
2022/03/11 23:11:39;;;;;;;;;;;10.40;47.90;;;;;;8417196;28;19927;-69
2022/03/11 23:15:41;;;;;;;;;;;10.40;47.70;;;;;;8404027;28;19920;-69
2022/03/11 23:19:43;;;;;;;;;;;10.40;47.50;;;;;;8423231;28;19927;-69
2022/03/11 23:23:45;;;;;;;;;;;10.40;48.30;;;;;;8420597;28;20359;-69
2022/03/11 23:27:47;;;;;;;;;;;10.40;47.60;;;;;;8399025;28;20299;-69
2022/03/11 23:31:50;;;;;;;;;;;10.40;47.60;;;;;;8406418;28;19923;-69
2022/03/11 23:35:52;;;;;;;;;;;10.40;48.20;;;;;;8402155;28;20298;-69
2022/03/11 23:39:54;;;;;;;;;;;10.40;48.30;;;;;;8399555;28;19941;-69
2022/03/11 23:43:56;;;;;;;;;;;10.40;48.00;;;;;;8419807;28;19924;-69